createdAt,value
2019-03-31T00:00:09.065Z,9.80
2019-03-31T00:02:38.447Z,9.69
2019-03-31T00:05:07.775Z,9.67
2019-03-31T00:07:37.130Z,9.70
2019-03-31T00:10:08.247Z,9.71
2019-03-31T00:12:37.574Z,9.68
2019-03-31T00:15:08.153Z,9.63
2019-03-31T00:17:37.516Z,9.62
2019-03-31T00:20:07.316Z,9.60
2019-03-31T00:22:36.653Z,9.57
2019-03-31T00:25:06.887Z,9.53
2019-03-31T00:27:36.254Z,9.47
2019-03-31T00:30:06.661Z,9.42
2019-03-31T00:32:36.047Z,9.36
2019-03-31T00:35:06.020Z,9.33
2019-03-31T00:37:35.398Z,9.30
2019-03-31T00:40:06.866Z,9.23
2019-03-31T00:42:36.267Z,9.16
2019-03-31T00:45:10.240Z,9.17
2019-03-31T00:47:39.574Z,9.19
2019-03-31T00:50:08.937Z,9.19
2019-03-31T00:52:38.293Z,9.17
2019-03-31T00:55:08.281Z,9.14
2019-03-31T00:57:37.999Z,9.11
2019-03-31T01:00:12.769Z,8.97
2019-03-31T01:02:42.201Z,8.90
2019-03-31T01:05:11.538Z,8.85
2019-03-31T01:07:41.502Z,8.83
2019-03-31T01:10:11.122Z,8.80
2019-03-31T01:12:40.526Z,8.80
2019-03-31T01:15:11.645Z,8.79
2019-03-31T01:17:40.992Z,8.74
2019-03-31T01:20:10.604Z,8.73
2019-03-31T01:22:39.965Z,8.73
2019-03-31T01:25:09.781Z,8.72
2019-03-31T01:27:39.254Z,8.72
2019-03-31T01:30:10.296Z,8.70
2019-03-31T01:32:39.998Z,8.68
2019-03-31T01:35:11.009Z,8.58
2019-03-31T01:37:40.357Z,8.56
2019-03-31T01:40:09.710Z,8.56
2019-03-31T01:42:39.041Z,8.57
2019-03-31T01:45:08.718Z,8.51
2019-03-31T01:47:38.078Z,8.46
2019-03-31T01:50:11.818Z,8.50
2019-03-31T01:52:41.202Z,8.46
2019-03-31T01:55:10.873Z,8.35
2019-03-31T01:57:40.206Z,8.32
2019-03-31T02:00:11.473Z,8.29
2019-03-31T02:02:42.326Z,8.27
2019-03-31T02:05:11.743Z,8.20
2019-03-31T02:07:41.083Z,8.22
2019-03-31T02:10:10.426Z,8.21
2019-03-31T02:12:39.773Z,8.21
2019-03-31T02:15:09.184Z,8.15
2019-03-31T02:17:38.552Z,8.17
2019-03-31T02:20:08.082Z,8.17
2019-03-31T02:22:37.422Z,8.13
2019-03-31T02:25:07.527Z,8.17
2019-03-31T02:27:36.889Z,8.19
2019-03-31T02:30:08.269Z,8.11
2019-03-31T02:32:37.605Z,8.17
2019-03-31T02:35:07.296Z,8.23
2019-03-31T02:37:36.636Z,8.28
2019-03-31T02:40:06.547Z,8.30
2019-03-31T02:42:35.942Z,8.30
2019-03-31T02:45:08.105Z,8.27
2019-03-31T02:47:36.732Z,8.18
2019-03-31T02:50:07.289Z,8.07
2019-03-31T02:52:36.632Z,8.06
2019-03-31T02:55:06.965Z,8.14
2019-03-31T02:57:36.479Z,8.14
2019-03-31T03:00:07.469Z,8.11
2019-03-31T03:02:41.997Z,8.10
2019-03-31T03:05:18.386Z,8.07
2019-03-31T03:07:39.689Z,8.05
2019-03-31T03:10:09.899Z,8.02
2019-03-31T03:12:40.826Z,7.99
2019-03-31T03:15:10.197Z,7.93
2019-03-31T03:17:39.554Z,7.78
2019-03-31T03:20:08.939Z,7.71
2019-03-31T03:22:38.290Z,7.76
2019-03-31T03:25:07.621Z,7.79
2019-03-31T03:27:36.986Z,7.80
2019-03-31T03:30:07.752Z,7.79
2019-03-31T03:32:37.426Z,7.77
2019-03-31T03:35:06.812Z,7.70
2019-03-31T03:37:36.248Z,7.70
2019-03-31T03:40:07.246Z,7.66
2019-03-31T03:42:36.600Z,7.61
2019-03-31T03:45:07.455Z,7.49
2019-03-31T03:47:36.798Z,7.52
2019-03-31T03:50:08.902Z,7.52
2019-03-31T03:52:37.542Z,7.50
2019-03-31T03:55:06.909Z,7.41
2019-03-31T03:57:36.280Z,7.34
2019-03-31T04:00:06.430Z,7.34
2019-03-31T04:02:35.765Z,7.34
2019-03-31T04:05:06.254Z,7.36
2019-03-31T04:07:35.608Z,7.30
2019-03-31T04:10:08.640Z,7.28
2019-03-31T04:12:37.996Z,7.26
2019-03-31T04:15:07.421Z,7.23
2019-03-31T04:17:36.772Z,7.17
2019-03-31T04:20:06.686Z,7.17
2019-03-31T04:22:36.069Z,7.14
2019-03-31T04:25:05.737Z,7.13
2019-03-31T04:27:35.076Z,7.10
2019-03-31T04:30:04.906Z,7.11
2019-03-31T04:32:38.567Z,7.14
2019-03-31T04:35:05.366Z,7.15
2019-03-31T04:37:34.711Z,7.09
2019-03-31T04:40:05.882Z,6.99
2019-03-31T04:42:35.229Z,6.94
2019-03-31T04:45:06.007Z,6.90
2019-03-31T04:47:35.377Z,6.92
2019-03-31T04:50:04.797Z,6.91
2019-03-31T04:52:34.207Z,6.86
2019-03-31T04:55:03.562Z,6.84
2019-03-31T04:57:32.912Z,6.83
2019-03-31T05:00:02.290Z,6.79
2019-03-31T05:02:31.635Z,6.79
2019-03-31T05:05:00.993Z,6.76
2019-03-31T05:07:30.342Z,6.69
2019-03-31T05:09:59.783Z,6.74
2019-03-31T05:12:29.159Z,6.75
2019-03-31T05:14:58.504Z,6.68
2019-03-31T05:17:27.830Z,6.64
2019-03-31T05:19:57.183Z,7.29
2019-03-31T05:22:26.523Z,8.06
2019-03-31T05:24:55.905Z,8.48
2019-03-31T05:27:25.295Z,8.85
2019-03-31T05:29:54.673Z,9.14
2019-03-31T05:32:24.038Z,9.42
2019-03-31T05:34:53.363Z,9.66
2019-03-31T05:37:22.748Z,9.75
2019-03-31T05:39:52.076Z,9.83
2019-03-31T05:42:21.456Z,9.48
2019-03-31T05:44:50.820Z,9.03
2019-03-31T05:47:20.317Z,8.60
2019-03-31T05:49:49.725Z,8.24
2019-03-31T05:52:19.070Z,8.21
2019-03-31T05:54:48.407Z,8.09
2019-03-31T05:57:17.765Z,8.11
2019-03-31T05:59:47.389Z,8.49
2019-03-31T06:02:17.153Z,8.84
2019-03-31T06:04:46.489Z,9.25
2019-03-31T06:07:15.875Z,9.50
2019-03-31T06:09:45.226Z,9.23
2019-03-31T06:12:14.574Z,8.92
2019-03-31T06:14:43.944Z,8.69
2019-03-31T06:17:13.284Z,8.52
2019-03-31T06:19:42.652Z,8.39
2019-03-31T06:22:12.062Z,8.33
2019-03-31T06:24:41.430Z,8.29
2019-03-31T06:27:11.538Z,8.23
2019-03-31T06:29:40.887Z,8.25
2019-03-31T06:32:10.253Z,8.22
2019-03-31T06:34:47.363Z,8.26
2019-03-31T06:37:10.668Z,8.25
2019-03-31T06:39:40.046Z,8.32
2019-03-31T06:42:09.390Z,8.41
2019-03-31T06:44:38.761Z,8.52
2019-03-31T06:47:08.090Z,8.64
2019-03-31T06:49:37.432Z,8.74
2019-03-31T06:52:08.190Z,8.78
2019-03-31T06:54:37.542Z,8.85
2019-03-31T06:57:06.909Z,8.93
2019-03-31T06:59:36.240Z,8.97
2019-03-31T07:02:05.955Z,9.13
2019-03-31T07:04:35.319Z,9.31
2019-03-31T07:07:04.653Z,9.48
2019-03-31T07:09:34.029Z,9.62
2019-03-31T07:12:03.388Z,9.75
2019-03-31T07:14:32.721Z,9.88
2019-03-31T07:17:02.158Z,10.01
2019-03-31T07:19:31.477Z,10.11
2019-03-31T07:22:00.844Z,10.16
2019-03-31T07:24:30.190Z,10.28
2019-03-31T07:26:59.522Z,10.43
2019-03-31T07:29:28.877Z,10.56
2019-03-31T07:31:58.222Z,10.71
2019-03-31T07:34:27.600Z,10.80
2019-03-31T07:36:56.966Z,10.90
2019-03-31T07:39:26.464Z,11.02
2019-03-31T07:41:56.073Z,11.10
2019-03-31T07:44:25.461Z,11.16
2019-03-31T07:46:54.849Z,11.30
2019-03-31T07:49:24.263Z,11.37
2019-03-31T07:51:53.621Z,11.49
2019-03-31T07:54:23.406Z,11.69
2019-03-31T07:56:53.176Z,11.80
2019-03-31T07:59:22.767Z,11.93
2019-03-31T08:01:53.746Z,12.05
2019-03-31T08:04:23.104Z,12.15
2019-03-31T08:06:52.471Z,12.29
2019-03-31T08:09:21.842Z,12.44
2019-03-31T08:12:10.686Z,12.55
2019-03-31T08:14:40.116Z,12.65
2019-03-31T08:17:09.464Z,12.68
2019-03-31T08:19:38.845Z,12.72
2019-03-31T08:22:08.207Z,12.94
2019-03-31T08:24:42.048Z,13.10
2019-03-31T08:27:13.402Z,13.20
2019-03-31T08:29:44.406Z,13.34
2019-03-31T08:32:14.347Z,13.47
2019-03-31T08:34:43.733Z,13.61
2019-03-31T08:37:13.136Z,13.70
2019-03-31T08:39:42.550Z,13.78
2019-03-31T08:42:11.903Z,13.84
2019-03-31T08:44:41.293Z,14.07
2019-03-31T08:47:10.924Z,14.26
2019-03-31T08:49:40.287Z,14.35
2019-03-31T08:52:09.707Z,14.42
2019-03-31T08:54:39.063Z,14.58
2019-03-31T08:57:08.419Z,14.73
2019-03-31T08:59:37.779Z,14.84
2019-03-31T09:02:24.994Z,14.96
2019-03-31T09:04:54.385Z,15.07
2019-03-31T09:07:23.726Z,15.18
2019-03-31T09:09:53.094Z,15.24
2019-03-31T09:12:22.528Z,15.27
2019-03-31T09:14:51.920Z,15.33
2019-03-31T09:17:21.263Z,15.42
2019-03-31T09:19:50.620Z,15.50
2019-03-31T09:22:20.024Z,15.53
2019-03-31T09:24:49.449Z,15.61
2019-03-31T09:27:18.829Z,15.72
2019-03-31T09:29:48.228Z,15.89
2019-03-31T09:32:17.603Z,16.06
2019-03-31T09:34:46.969Z,16.19
2019-03-31T09:37:16.310Z,16.33
2019-03-31T09:39:45.688Z,16.41
2019-03-31T09:42:15.037Z,16.43
2019-03-31T09:44:44.387Z,16.52
2019-03-31T09:47:13.767Z,16.64
2019-03-31T09:49:43.114Z,16.74
2019-03-31T09:52:12.485Z,16.76
2019-03-31T09:54:41.830Z,16.89
2019-03-31T09:57:11.180Z,16.97
2019-03-31T09:59:40.550Z,17.09
2019-03-31T10:02:09.899Z,17.19
2019-03-31T10:04:39.281Z,17.32
2019-03-31T10:07:08.626Z,17.48
2019-03-31T10:09:38.061Z,17.62
2019-03-31T10:12:07.431Z,17.65
2019-03-31T10:14:36.778Z,17.82
2019-03-31T10:17:07.052Z,17.88
2019-03-31T10:19:36.407Z,18.03
2019-03-31T10:22:05.760Z,18.24
2019-03-31T10:24:35.145Z,18.42
2019-03-31T10:27:04.510Z,18.61
2019-03-31T10:29:33.893Z,18.70
2019-03-31T10:32:03.241Z,18.78
2019-03-31T10:34:32.590Z,18.91
2019-03-31T10:37:01.954Z,19.00
2019-03-31T10:39:31.284Z,19.17
2019-03-31T10:42:00.676Z,19.26
2019-03-31T10:44:30.036Z,19.40
2019-03-31T10:46:59.393Z,19.51
2019-03-31T10:49:28.751Z,19.60
2019-03-31T10:51:58.136Z,19.55
2019-03-31T10:54:27.516Z,19.62
2019-03-31T10:56:56.881Z,19.87
2019-03-31T10:59:26.251Z,20.06
2019-03-31T11:01:55.637Z,20.25
2019-03-31T11:04:24.983Z,20.26
2019-03-31T11:06:59.527Z,20.40
2019-03-31T11:09:25.450Z,20.36
2019-03-31T11:11:54.787Z,20.57
2019-03-31T11:14:24.182Z,20.58
2019-03-31T11:16:53.525Z,20.62
2019-03-31T11:19:22.898Z,20.59
2019-03-31T11:21:53.889Z,20.80
2019-03-31T11:24:23.231Z,20.77
2019-03-31T11:26:52.589Z,20.93
2019-03-31T11:29:21.917Z,21.25
2019-03-31T11:31:51.302Z,21.22
2019-03-31T11:34:20.646Z,21.13
2019-03-31T11:36:49.983Z,21.24
2019-03-31T11:39:19.354Z,21.34
2019-03-31T11:41:48.695Z,21.56
2019-03-31T11:44:18.094Z,21.83
2019-03-31T11:46:47.439Z,21.93
2019-03-31T11:49:16.793Z,21.85
2019-03-31T11:51:46.147Z,21.94
2019-03-31T11:54:15.495Z,21.74
2019-03-31T11:56:44.873Z,21.58
2019-03-31T11:59:14.397Z,21.51
2019-03-31T12:01:43.822Z,21.49
2019-03-31T12:04:13.204Z,21.68
2019-03-31T12:06:42.554Z,21.81
2019-03-31T12:09:12.062Z,22.05
2019-03-31T12:11:41.411Z,22.28
2019-03-31T12:14:10.741Z,22.58
2019-03-31T12:16:40.095Z,22.62
2019-03-31T12:19:09.441Z,22.84
2019-03-31T12:21:39.299Z,22.99
2019-03-31T12:24:08.643Z,23.23
2019-03-31T12:26:38.006Z,23.57
2019-03-31T12:29:07.366Z,23.75
2019-03-31T12:31:36.708Z,23.77
2019-03-31T12:34:06.084Z,23.87
2019-03-31T12:36:35.805Z,23.94
2019-03-31T12:39:08.835Z,23.94
2019-03-31T12:41:38.184Z,24.01
2019-03-31T12:44:07.534Z,23.98
2019-03-31T12:46:36.906Z,24.12
2019-03-31T12:49:06.318Z,24.11
2019-03-31T12:51:35.660Z,24.13
2019-03-31T12:54:05.036Z,23.89
2019-03-31T12:56:34.379Z,23.87
2019-03-31T12:59:03.778Z,23.72
2019-03-31T13:01:33.199Z,23.87
2019-03-31T13:04:02.585Z,24.02
2019-03-31T13:06:31.946Z,24.11
2019-03-31T13:09:01.293Z,23.96
2019-03-31T13:11:30.663Z,23.79
2019-03-31T13:14:00.011Z,23.48
2019-03-31T13:16:29.351Z,23.24
2019-03-31T13:18:58.710Z,23.08
2019-03-31T13:21:28.050Z,23.18
2019-03-31T13:23:57.432Z,23.51
2019-03-31T13:26:26.847Z,23.76
2019-03-31T13:28:56.184Z,24.16
2019-03-31T13:31:25.541Z,24.52
2019-03-31T13:33:54.895Z,24.77
2019-03-31T13:36:24.275Z,25.15
2019-03-31T13:38:53.626Z,25.17
2019-03-31T13:41:22.970Z,25.14
2019-03-31T13:43:52.320Z,25.03
2019-03-31T13:46:21.694Z,24.48
2019-03-31T13:48:51.034Z,23.94
2019-03-31T13:51:20.385Z,23.58
2019-03-31T13:53:49.733Z,23.36
2019-03-31T13:56:19.789Z,23.18
2019-03-31T13:58:52.617Z,23.05
2019-03-31T14:01:20.563Z,22.98
2019-03-31T14:03:49.888Z,22.78
2019-03-31T14:06:19.609Z,22.61
2019-03-31T14:08:48.968Z,22.44
2019-03-31T14:11:21.491Z,22.53
2019-03-31T14:13:49.423Z,23.03
2019-03-31T14:16:18.777Z,23.31
2019-03-31T14:18:48.124Z,23.78
2019-03-31T14:21:17.503Z,23.90
2019-03-31T14:23:46.839Z,23.72
2019-03-31T14:26:16.208Z,23.94
2019-03-31T14:28:45.568Z,23.83
2019-03-31T14:31:14.931Z,24.49
2019-03-31T14:33:44.282Z,25.27
2019-03-31T14:36:13.629Z,25.90
2019-03-31T14:38:42.988Z,26.34
2019-03-31T14:41:12.426Z,26.80
2019-03-31T14:43:41.785Z,27.29
2019-03-31T14:46:11.153Z,27.62
2019-03-31T14:48:40.500Z,28.01
2019-03-31T14:51:09.900Z,28.08
2019-03-31T14:53:39.251Z,28.23
2019-03-31T14:56:08.605Z,28.50
2019-03-31T14:58:37.981Z,28.61
2019-03-31T15:01:07.403Z,28.65
2019-03-31T15:03:36.790Z,28.86
2019-03-31T15:06:06.139Z,29.17
2019-03-31T15:08:35.491Z,29.24
2019-03-31T15:11:04.859Z,28.96
2019-03-31T15:13:34.195Z,28.90
2019-03-31T15:16:03.651Z,28.73
2019-03-31T15:18:33.071Z,28.79
2019-03-31T15:21:02.456Z,29.02
2019-03-31T15:23:31.816Z,28.99
2019-03-31T15:26:01.153Z,29.01
2019-03-31T15:28:30.527Z,29.38
2019-03-31T15:30:59.880Z,29.38
2019-03-31T15:33:29.230Z,29.08
2019-03-31T15:35:58.641Z,29.13
2019-03-31T15:38:28.765Z,29.09
2019-03-31T15:40:58.121Z,29.00
2019-03-31T15:43:27.459Z,28.84
2019-03-31T15:45:56.802Z,29.13
2019-03-31T15:48:26.168Z,28.91
2019-03-31T15:50:55.527Z,29.10
2019-03-31T15:53:24.906Z,29.25
2019-03-31T15:55:54.245Z,29.30
2019-03-31T15:58:23.627Z,29.33
2019-03-31T16:00:53.043Z,29.28
2019-03-31T16:03:22.405Z,29.34
2019-03-31T16:05:51.787Z,29.43
2019-03-31T16:08:21.134Z,29.66
2019-03-31T16:10:50.473Z,29.45
2019-03-31T16:13:19.861Z,28.98
2019-03-31T16:15:49.292Z,28.91
2019-03-31T16:18:18.692Z,29.05
2019-03-31T16:20:48.044Z,29.06
2019-03-31T16:23:17.400Z,28.85
2019-03-31T16:25:59.694Z,28.86
2019-03-31T16:28:29.050Z,28.54
2019-03-31T16:30:58.404Z,28.28
2019-03-31T16:33:27.832Z,28.33
2019-03-31T16:35:57.197Z,27.84
2019-03-31T16:38:26.544Z,27.25
2019-03-31T16:40:55.970Z,26.63
2019-03-31T16:43:25.372Z,26.05
2019-03-31T16:45:54.748Z,25.28
2019-03-31T16:48:24.097Z,24.55
2019-03-31T16:50:53.435Z,23.96
2019-03-31T16:53:22.804Z,23.71
2019-03-31T16:55:52.156Z,23.12
2019-03-31T16:58:21.545Z,22.66
2019-03-31T17:00:50.876Z,22.38
2019-03-31T17:03:20.224Z,22.23
2019-03-31T17:05:49.927Z,22.02
2019-03-31T17:08:19.262Z,21.86
2019-03-31T17:10:48.628Z,21.57
2019-03-31T17:13:17.985Z,21.54
2019-03-31T17:15:47.334Z,21.42
2019-03-31T17:18:16.694Z,21.41
2019-03-31T17:20:46.075Z,21.28
2019-03-31T17:23:15.465Z,21.16
2019-03-31T17:25:44.806Z,20.99
2019-03-31T17:28:14.137Z,20.84
2019-03-31T17:30:43.517Z,20.80
2019-03-31T17:33:12.868Z,20.71
2019-03-31T17:35:42.247Z,20.53
2019-03-31T17:38:11.719Z,20.46
2019-03-31T17:40:41.351Z,20.30
2019-03-31T17:43:10.738Z,20.17
2019-03-31T17:45:40.094Z,19.93
2019-03-31T17:48:09.477Z,19.87
2019-03-31T17:50:38.826Z,19.76
2019-03-31T17:53:08.189Z,19.63
2019-03-31T17:55:37.569Z,19.43
2019-03-31T17:58:06.970Z,19.34
2019-03-31T18:00:36.433Z,19.23
2019-03-31T18:03:05.792Z,19.13
2019-03-31T18:05:35.148Z,19.01
2019-03-31T18:08:04.512Z,18.88
2019-03-31T18:10:33.932Z,18.80
2019-03-31T18:13:03.307Z,18.68
2019-03-31T18:15:32.918Z,18.50
2019-03-31T18:18:02.262Z,18.41
2019-03-31T18:20:31.647Z,18.32
2019-03-31T18:23:01.048Z,18.19
2019-03-31T18:25:30.429Z,18.07
2019-03-31T18:27:59.770Z,17.95
2019-03-31T18:30:29.129Z,17.97
2019-03-31T18:32:58.511Z,17.77
2019-03-31T18:35:27.862Z,17.63
2019-03-31T18:37:57.330Z,17.59
2019-03-31T18:40:34.772Z,17.33
2019-03-31T18:42:57.840Z,17.07
2019-03-31T18:45:27.216Z,16.88
2019-03-31T18:47:56.558Z,16.83
2019-03-31T18:50:25.945Z,16.68
2019-03-31T18:52:55.299Z,16.52
2019-03-31T18:55:32.202Z,16.46
2019-03-31T18:58:03.200Z,16.25
2019-03-31T19:00:47.141Z,16.22
2019-03-31T19:03:30.474Z,16.16
2019-03-31T19:06:11.867Z,16.06
2019-03-31T19:08:47.273Z,15.96
2019-03-31T19:11:31.142Z,15.88
2019-03-31T19:14:03.006Z,15.90
2019-03-31T19:16:42.796Z,15.76
2019-03-31T19:19:29.896Z,15.79
2019-03-31T19:22:04.853Z,15.66
2019-03-31T19:24:53.678Z,15.53
2019-03-31T19:27:24.713Z,15.47
2019-03-31T19:30:11.736Z,15.43
2019-03-31T19:32:55.772Z,15.37
2019-03-31T19:35:26.778Z,15.38
2019-03-31T19:37:58.901Z,15.35
2019-03-31T19:40:29.179Z,15.26
2019-03-31T19:42:58.329Z,15.25
2019-03-31T19:45:45.571Z,15.20
2019-03-31T19:48:26.802Z,15.18
2019-03-31T19:50:57.809Z,15.08
2019-03-31T19:53:46.389Z,15.01
2019-03-31T19:56:23.065Z,14.92
2019-03-31T19:59:09.973Z,14.87
2019-03-31T20:01:43.440Z,14.81
2019-03-31T20:04:30.383Z,14.70
2019-03-31T20:07:01.382Z,14.75
2019-03-31T20:09:38.340Z,14.70
2019-03-31T20:12:18.341Z,14.62
2019-03-31T20:15:05.184Z,14.62
2019-03-31T20:17:41.904Z,14.53
2019-03-31T20:20:28.889Z,14.46
2019-03-31T20:23:02.764Z,14.40
2019-03-31T20:25:31.893Z,14.36
2019-03-31T20:28:08.588Z,14.33
2019-03-31T20:30:57.474Z,14.29
2019-03-31T20:33:35.657Z,14.20
2019-03-31T20:36:06.652Z,14.05
2019-03-31T20:38:43.466Z,14.00
2019-03-31T20:41:23.236Z,13.96
2019-03-31T20:43:55.408Z,13.95
2019-03-31T20:46:24.035Z,13.90
2019-03-31T20:48:53.675Z,13.92
2019-03-31T20:51:23.056Z,13.86
2019-03-31T20:53:52.412Z,13.87
2019-03-31T20:56:21.784Z,13.80
2019-03-31T20:58:51.150Z,13.75
2019-03-31T21:01:20.495Z,13.67
2019-03-31T21:03:49.868Z,13.57
2019-03-31T21:06:19.226Z,13.56
2019-03-31T21:08:48.622Z,13.51
2019-03-31T21:11:17.955Z,13.50
2019-03-31T21:13:47.308Z,13.49
2019-03-31T21:16:16.687Z,13.42
2019-03-31T21:18:46.055Z,13.40
2019-03-31T21:21:15.422Z,13.38
2019-03-31T21:23:44.787Z,13.27
2019-03-31T21:26:14.137Z,13.26
2019-03-31T21:28:43.500Z,13.20
2019-03-31T21:31:12.936Z,13.18
2019-03-31T21:33:42.461Z,13.14
2019-03-31T21:36:11.821Z,13.08
2019-03-31T21:38:41.241Z,13.11
2019-03-31T21:41:13.932Z,13.03
2019-03-31T21:43:41.696Z,13.01
2019-03-31T21:46:11.066Z,13.00
2019-03-31T21:48:40.423Z,13.03
2019-03-31T21:51:10.531Z,12.93
2019-03-31T21:53:39.909Z,12.89
2019-03-31T21:56:09.261Z,12.92
2019-03-31T21:58:38.663Z,12.83
2019-03-31T22:01:08.376Z,12.80
2019-03-31T22:03:37.737Z,12.76
2019-03-31T22:06:07.132Z,12.75
2019-03-31T22:08:36.471Z,12.64
2019-03-31T22:11:05.852Z,12.58
2019-03-31T22:13:35.209Z,12.57
2019-03-31T22:16:04.570Z,12.54
2019-03-31T22:18:33.940Z,12.50
2019-03-31T22:21:03.311Z,12.50
2019-03-31T22:23:32.689Z,12.43
2019-03-31T22:26:02.086Z,12.36
2019-03-31T22:28:31.477Z,12.28
2019-03-31T22:31:00.855Z,12.35
2019-03-31T22:33:30.208Z,12.26
2019-03-31T22:36:16.797Z,12.27
2019-03-31T22:38:46.147Z,12.27
2019-03-31T22:41:15.499Z,12.19
2019-03-31T22:43:44.873Z,12.11
2019-03-31T22:46:14.214Z,12.01
2019-03-31T22:48:43.637Z,12.00
2019-03-31T22:51:12.995Z,11.99
2019-03-31T22:53:42.337Z,11.95
2019-03-31T22:56:11.685Z,11.90
2019-03-31T22:58:41.112Z,11.94
2019-03-31T23:01:10.455Z,11.83
2019-03-31T23:03:39.814Z,11.83
2019-03-31T23:06:09.192Z,11.83
2019-03-31T23:08:38.535Z,11.79
2019-03-31T23:11:07.917Z,11.71
2019-03-31T23:13:37.266Z,11.69
2019-03-31T23:16:06.658Z,11.65
2019-03-31T23:18:36.026Z,11.68
2019-03-31T23:21:05.378Z,11.63
2019-03-31T23:23:34.754Z,11.67
2019-03-31T23:26:04.100Z,11.64
2019-03-31T23:28:33.472Z,11.52
2019-03-31T23:31:03.792Z,11.58
2019-03-31T23:33:33.261Z,11.46
2019-03-31T23:36:02.644Z,11.40
2019-03-31T23:38:32.260Z,11.38
2019-03-31T23:41:01.603Z,11.31
2019-03-31T23:43:30.958Z,11.28
2019-03-31T23:46:01.959Z,11.32
2019-03-31T23:48:31.358Z,11.31
2019-03-31T23:51:00.701Z,11.23
2019-03-31T23:53:30.078Z,11.23
2019-03-31T23:55:59.443Z,11.24
2019-03-31T23:58:28.786Z,11.15
